Data for 08/02/2018

Time Sea-Level Adjusted Pressure Absolute Pressure Temperature Relative Humidity Dew Point   
(mb) (inHg) (mb) (inHg) (C) (F) (%) (C) (F)
00:05 1020 30.12 849 25.07 19.7 67.5 50 9.1 48.4
00:10 1019 30.09 849 25.07 19.4 66.9 52 9.5 49
00:15 1020 30.12 849 25.07 18.9 66 48 7.9 46.2
00:20 1020 30.12 849 25.07 19.2 66.5 44 6.7 44.1
00:25 1019 30.09 848 25.04 21.2 70.2 33 4.3 39.8
00:30 1018 30.06 847 25.01 21.8 71.3 30 3.5 38.2
00:35 1018 30.06 847 25.01 22.7 72.8 28 3.3 37.9
00:40 1018 30.06 847 25.01 23.4 74.1 31 5.7 42.3
00:45 1019 30.09 848 25.04 22.1 71.8 37 7 44.6
00:50 1019 30.09 848 25.04 21.2 70.2 34 4.9 40.8
00:55 1019 30.09 848 25.04 21.3 70.3 37 6.2 43.2
01:00 1019 30.09 848 25.04 21.3 70.3 39 7 44.6
01:05 1019 30.09 848 25.04 21 69.7 37 5.7 42.3
01:10 1019 30.09 848 25.04 20.8 69.5 37 5.6 42.1
01:15 1019 30.09 848 25.04 21.1 70 37 5.9 42.6
01:20 1019 30.09 848 25.04 20.5 68.8 42 7.3 45.2
01:25 1019 30.09 848 25.04 19.6 67.3 47 8.1 46.6
01:30 1019 30.09 848 25.04 19.1 66.4 48 7.9 46.2
01:35 1019 30.09 848 25.04 19 66.2 49 8.2 46.8
01:40 1019 30.09 848 25.04 18.7 65.6 50 8.1 46.7
01:45 1019 30.09 848 25.04 18.6 65.4 50 8.1 46.6
01:50 1019 30.09 848 25.04 18.5 65.2 50 8 46.5
01:55 1019 30.09 848 25.04 18.4 65.2 48 7.3 45.1
02:00 1019 30.09 848 25.04 18.7 65.7 46 7.1 44.8
02:05 1019 30.09 848 25.04 19 66.2 47 7.6 45.7
02:10 1019 30.09 848 25.04 18.5 65.3 48 7.5 45.6
02:15 1019 30.09 848 25.04 18.3 65 49 7.5 45.6
02:20 1019 30.09 848 25.04 18.2 64.8 50 7.6 45.7
02:25 1019 30.09 848 25.04 18.4 65.1 47 7.1 44.7
02:30 1019 30.09 848 25.04 18.6 65.4 48 7.6 45.6
02:35 1019 30.09 848 25.04 18.1 64.5 52 8.2 46.7
02:40 1019 30.09 848 25.04 17.3 63.2 54 8 46.4
02:45 1019 30.09 848 25.04 17.1 62.7 54 7.9 46.3
02:50 1019 30.09 848 25.04 17.1 62.7 54 7.7 45.8
02:55 1019 30.09 848 25.04 17.1 62.8 52 7.4 45.3
03:00 1019 30.09 848 25.04 17.5 63.5 50 7.1 44.9
03:05 1019 30.09 848 25.04 17.8 64.1 50 7.4 45.2
03:10 1019 30.09 848 25.04 17.5 63.4 50 7.2 44.9
03:15 1019 30.09 848 25.04 17.6 63.8 48 6.6 43.9
03:20 1019 30.09 848 25.04 18 64.4 48 6.8 44.2
03:25 1019 30.09 848 25.04 17.8 64.1 49 7.2 44.9
03:30 1019 30.09 848 25.04 17.5 63.4 51 7.2 45
03:35 1019 30.09 848 25.04 17.2 63 51 7.1 44.8
03:40 1019 30.09 848 25.04 17.3 63.1 50 6.8 44.3
03:45 1019 30.09 848 25.04 17.5 63.4 49 6.7 44.1
03:50 1019 30.09 848 25.04 17.7 63.9 48 6.7 44
03:55 1019 30.09 848 25.04 17.5 63.5 48 6.5 43.7
04:00 1019 30.09 848 25.04 17.3 63.2 48 6.4 43.6
04:05 1019 30.09 848 25.04 17.1 62.8 49 6.4 43.6
04:10 1019 30.09 848 25.04 17 62.5 49 6.2 43.2
04:15 1019 30.09 848 25.04 16.9 62.4 49 6.1 42.9
04:20 1019 30.09 848 25.04 16.8 62.2 49 6.1 42.9
04:25 1019 30.09 848 25.04 16.9 62.5 48 6.1 43
04:30 1019 30.09 848 25.04 16.7 62.1 50 6.4 43.5
04:35 1019 30.09 848 25.04 16.3 61.4 52 6.5 43.7
04:40 1019 30.09 848 25.04 16.3 61.3 52 6.4 43.5
04:45 1019 30.09 848 25.04 16.4 61.4 51 6.4 43.4
04:50 1019 30.09 848 25.04 16.4 61.4 51 6.4 43.6
04:55 1019 30.09 848 25.04 16.2 61.1 52 6.3 43.3
05:00 1019 30.09 848 25.04 16.1 61 51 6 42.8
05:05 1019 30.09 848 25.04 16 60.9 52 6.2 43.2
05:10 1019 30.09 848 25.04 15.6 60.1 54 6.4 43.6
05:15 1019 30.09 848 25.04 15.4 59.7 53 6 42.8
05:20 1019 30.09 848 25.04 15.7 60.2 50 5.3 41.6
05:25 1019 30.09 848 25.04 16.6 61.8 49 6 42.7
05:30 1019 30.09 848 25.04 16.5 61.6 48 5.6 42
05:35 1019 30.09 848 25.04 16.6 61.8 49 5.9 42.6
05:40 1019 30.09 848 25.04 16.3 61.3 50 5.9 42.7
05:45 1019 30.09 848 25.04 16.2 61.2 51 6 42.9
05:50 1019 30.09 848 25.04 15.9 60.6 52 6.2 43.2
05:55 1019 30.09 848 25.04 15.6 60.2 51 5.7 42.3
06:00 1019 30.09 848 25.04 16.1 60.9 50 5.8 42.5
06:05 1019 30.09 848 25.04 16.4 61.4 50 5.9 42.6
06:10 1019 30.09 848 25.04 16.4 61.4 48 5.4 41.7
06:15 1019 30.09 848 25.04 16.6 61.9 48 5.5 41.9
06:20 1019 30.09 848 25.04 16.9 62.4 49 6.3 43.4
06:25 1019 30.09 848 25.04 16.4 61.6 53 6.9 44.4
06:30 1019 30.09 848 25.04 15.9 60.7 55 7 44.5
06:35 1019 30.09 848 25.04 15.7 60.2 54 6.5 43.7
06:40 1019 30.09 848 25.04 15.9 60.5 59 7.9 46.2
06:45 1019 30.09 849 25.07 15.9 60.6 57 7.5 45.5
06:50 1019 30.09 849 25.07 16.1 61 56 7.4 45.4
06:55 1019 30.09 849 25.07 16.3 61.3 55 7.4 45.4
07:00 1019 30.09 849 25.07 16.6 61.9 52 6.7 44.1
07:05 1019 30.09 849 25.07 17.1 62.9 54 8 46.3
07:10 1019 30.09 849 25.07 17.7 63.9 52 7.8 46
07:15 1019 30.09 849 25.07 18.4 65.1 47 7 44.6
07:20 1019 30.09 849 25.07 18.9 66 46 7 44.7
07:25 1019 30.09 849 25.07 19.3 66.8 43 6.7 44.1
07:30 1019 30.09 849 25.07 19.5 67.1 43 6.6 43.9
07:35 1019 30.09 849 25.07 19.6 67.3 45 7.6 45.6
07:40 1019 30.09 849 25.07 19.6 67.3 48 8.3 47
07:45 1019 30.09 849 25.07 19.8 67.7 49 8.8 47.9
07:50 1019 30.09 849 25.07 19.8 67.7 48 8.5 47.3
07:55 1019 30.09 849 25.07 20.2 68.4 46 8.5 47.3
08:00 1019 30.09 849 25.07 20.8 69.5 45 8.5 47.3
08:05 1019 30.09 849 25.07 21.2 70.2 44 8.6 47.5
08:10 1019 30.09 849 25.07 21.6 70.9 40 7.6 45.7
08:15 1019 30.09 849 25.07 21.7 71.1 42 8.6 47.4
08:20 1019 30.09 849 25.07 21.5 70.7 47 10 50
08:25 1019 30.09 849 25.07 21.6 70.8 42 8.4 47.2
08:30 1019 30.09 849 25.07 21.9 71.4 41 8.1 46.5
08:35 1019 30.09 849 25.07 22.1 71.8 38 7.3 45.1
08:40 1019 30.09 849 25.07 22.6 72.7 37 7.5 45.5
08:45 1019 30.09 848 25.04 23 73.4 38 8 46.4
08:50 1019 30.09 848 25.04 23.4 74.1 34 6.8 44.3
08:55 1019 30.09 848 25.04 23.7 74.6 35 7.3 45.2
09:00 1019 30.09 848 25.04 24 75.3 34 7.5 45.4
09:05 1019 30.09 848 25.04 23.9 75 37 8.5 47.3
09:10 1019 30.09 848 25.04 24.3 75.7 33 7 44.7
09:15 1019 30.09 848 25.04 24.6 76.2 32 7.2 44.9
09:20 1019 30.09 848 25.04 25.2 77.4 31 7 44.6
09:25 1019 30.09 848 25.04 25.7 78.2 31 7.4 45.4
09:30 1019 30.09 848 25.04 25.3 77.6 32 7.6 45.7
09:35 1019 30.09 848 25.04 25.8 78.4 31 7.5 45.5
09:40 1019 30.09 848 25.04 25.7 78.2 31 7.5 45.6
09:45 1019 30.09 848 25.04 25.7 78.2 31 7.5 45.5
09:50 1019 30.09 848 25.04 26.1 78.9 29 6.8 44.2
09:55 1019 30.09 848 25.04 25.8 78.5 29 6.9 44.5
10:00 1019 30.09 848 25.04 26.2 79.1 30 7.5 45.4
10:05 1019 30.09 848 25.04 25.7 78.3 31 7.6 45.7
10:10 1019 30.09 848 25.04 25.4 77.7 30 6.9 44.4
10:15 1019 30.09 848 25.04 25.8 78.4 29 6.6 43.9
10:20 1019 30.09 848 25.04 26.5 79.8 28 7 44.6
10:25 1019 30.09 848 25.04 26.4 79.6 27 6.3 43.3
10:30 1019 30.09 848 25.04 27 80.5 27 6.6 43.9
10:35 1019 30.09 848 25.04 27.4 81.3 27 7.2 45
10:40 1019 30.09 848 25.04 27.7 81.8 26 6.9 44.4
10:45 1019 30.09 848 25.04 27.7 81.8 25 6.3 43.3
10:50 1019 30.09 848 25.04 26.9 80.5 27 6.6 43.9
10:55 1019 30.09 848 25.04 27.6 81.7 25 6.1 42.9
11:00 1019 30.09 848 25.04 27.5 81.5 28 7.5 45.4
11:05 1019 30.09 848 25.04 26.8 80.3 27 6.6 43.9
11:10 1019 30.09 848 25.04 27.5 81.5 25 6.2 43.2
11:15 1019 30.09 848 25.04 28.2 82.8 26 7.2 44.9
11:20 1019 30.09 848 25.04 28 82.4 25 6.6 43.9
11:25 1019 30.09 848 25.04 27.4 81.4 28 7.5 45.5
11:30 1019 30.09 848 25.04 27.9 82.3 28 7.9 46.1
11:35 1019 30.09 848 25.04 28.7 83.6 25 6.9 44.3
11:40 1019 30.09 848 25.04 28.2 82.8 26 7.1 44.7
11:45 1019 30.09 848 25.04 27.8 82.1 26 7.1 44.8
11:50 1018 30.06 848 25.04 27.7 81.9 26 6.7 44.1
11:55 1018 30.06 847 25.01 27.3 81.1 27 6.9 44.4
12:00 1018 30.06 847 25.01 27.1 80.8 27 6.6 43.9
12:05 1018 30.06 847 25.01 27.1 80.7 29 7.8 46
12:10 1018 30.06 847 25.01 26.9 80.4 27 6.5 43.7
12:15 1018 30.06 847 25.01 26.3 79.3 27 6.2 43.1
12:20 1018 30.06 847 25.01 26.4 79.6 27 5.9 42.7
12:25 1018 30.06 847 25.01 26.4 79.5 27 6.1 43
12:30 1018 30.06 847 25.01 26.8 80.3 27 6.3 43.4
12:35 1018 30.06 847 25.01 27 80.5 28 7 44.6
12:40 1017 30.03 847 25.01 27.3 81.2 25 5.8 42.4
12:45 1017 30.03 847 25.01 28.6 83.4 25 6.8 44.2
12:50 1017 30.03 847 25.01 27.9 82.1 26 6.7 44
12:55 1017 30.03 846 24.98 27.4 81.4 25 6 42.7
13:00 1017 30.03 846 24.98 27.5 81.6 25 6 42.8
13:05 1017 30.03 846 24.98 27.9 82.2 24 6.1 42.9
13:10 1017 30.03 846 24.98 27.9 82.2 27 7.3 45.2
13:15 1017 30.03 846 24.98 27.4 81.2 27 7 44.7
13:20 1017 30.03 846 24.98 27.4 81.3 25 6.2 43.1
13:25 1017 30.03 846 24.98 28 82.5 24 5.7 42.3
13:30 1017 30.03 846 24.98 28.8 83.8 23 5.7 42.3
13:35 1017 30.03 846 24.98 29.9 85.8 22 5.9 42.7
13:40 1017 30.03 846 24.98 30.4 86.6 21 6 42.7
13:45 1017 30.03 846 24.98 30.9 87.6 20 5.8 42.4
13:50 1017 30.03 846 24.98 30.3 86.5 21 6.2 43.2
13:55 1017 30.03 846 24.98 29.8 85.6 21 5.3 41.5
14:00 1017 30.03 846 24.98 29.6 85.2 21 5.5 42
14:05 1017 30.03 846 24.98 29.2 84.5 23 6.4 43.6
14:10 1017 30.03 846 24.98 29.3 84.8 23 6.6 43.8
14:15 1016 30 846 24.98 29.2 84.5 20 4.5 40.2
14:20 1016 30 846 24.98 29.5 85.1 20 4.8 40.6
14:25 1016 30 845 24.95 30 85.9 18 3 37.4
14:30 1016 30 845 24.95 30.1 86.1 16 2.2 36
14:35 1016 30 845 24.95 30.4 86.7 15 1.3 34.3
14:40 1016 30 845 24.95 30.6 87 15 1.3 34.3
14:45 1016 30 845 24.95 31.1 87.9 15 1.5 34.7
14:50 1016 30 845 24.95 30.6 87.1 15 1.2 34.2
14:55 1016 30 845 24.95 30.5 86.8 14 0.7 33.2
15:00 1016 30 845 24.95 30.6 87 14 0.4 32.8
15:05 1015 29.97 845 24.95 30.8 87.5 13 -0.1 31.8
15:10 1015 29.97 845 24.95 31.2 88.2 13 0.4 32.8
15:15 1015 29.97 844 24.92 31.5 88.7 14 1.1 33.9
15:20 1015 29.97 844 24.92 31.5 88.7 13 0.3 32.5
15:25 1015 29.97 844 24.92 31.6 88.8 13 0.6 33.2
15:30 1015 29.97 844 24.92 32.1 89.8 14 1.3 34.3
15:35 1015 29.97 844 24.92 32.2 90 14 1.3 34.4
15:40 1015 29.97 844 24.92 32.2 90 13 0.7 33.2
15:45 1015 29.97 844 24.92 32.1 89.7 13 0.7 33.2
15:50 1015 29.97 844 24.92 31.4 88.6 14 1.2 34.1
15:55 1015 29.97 844 24.92 31.3 88.3 14 1.4 34.6
16:00 1015 29.97 844 24.92 30.8 87.5 15 1.3 34.3
16:05 1015 29.97 844 24.92 30.6 87 15 1 33.8
16:10 1015 29.97 844 24.92 30.4 86.7 15 1.7 35
16:15 1015 29.97 844 24.92 30.2 86.4 16 2 35.6
16:20 1015 29.97 844 24.92 30 86 17 2.4 36.2
16:25 1015 29.97 844 24.92 30 85.9 15 1.2 34.2
16:30 1015 29.97 844 24.92 29.8 85.7 17 2.8 37.1
16:35 1015 29.97 844 24.92 29.5 85.2 19 3.5 38.3
16:40 1016 30 845 24.95 28.6 83.4 24 6.2 43.2
16:45 1016 30 845 24.95 25.8 78.4 26 5.2 41.4
16:50 1016 30 845 24.95 25 76.9 29 6.1 42.9
16:55 1016 30 845 24.95 24.5 76.1 28 5.2 41.4
17:00 1016 30 845 24.95 24.2 75.5 29 5 41.1
17:05 1016 30 845 24.95 24.6 76.3 26 4.2 39.5
17:10 1016 30 845 24.95 24.9 76.7 26 4.5 40.2
17:15 1016 30 845 24.95 24.9 76.8 27 5.1 41.1
17:20 1016 30 845 24.95 25.1 77.2 27 4.9 40.8
17:25 1016 30 845 24.95 24.7 76.4 28 5 41.1
17:30 1016 30 845 24.95 24.5 76.1 28 4.9 40.9
17:35 1016 30 845 24.95 24.4 75.9 29 5.6 42.1
17:40 1016 30 845 24.95 24.2 75.5 29 5.3 41.6
17:45 1016 30 845 24.95 24 75.3 30 5.6 42
17:50 1016 30 845 24.95 24 75.1 30 5.4 41.8
17:55 1016 30 845 24.95 24 75.2 32 6.6 43.8
18:00 1016 30 845 24.95 23.6 74.5 31 5.6 42.1
18:05 1016 30 845 24.95 23.6 74.5 33 6.8 44.3
18:10 1016 30 845 24.95 23.3 73.9 36 7.5 45.4
18:15 1016 30 845 24.95 22.8 73 39 8.2 46.8
18:20 1016 30 845 24.95 22.5 72.5 40 8.3 46.9
18:25 1016 30 845 24.95 22.4 72.3 40 8.4 47.2
18:30 1016 30 845 24.95 22.3 72.1 39 8 46.3
18:35 1016 30 845 24.95 22.4 72.3 37 7.3 45.2
18:40 1016 30 845 24.95 22.5 72.5 36 7 44.6
18:45 1016 30 845 24.95 22.6 72.7 36 7.1 44.8
18:50 1016 30 845 24.95 22.6 72.7 37 7.2 45
18:55 1016 30 845 24.95 22.4 72.3 39 7.8 46
19:00 1016 30 845 24.95 22.1 71.7 39 7.8 46.1
19:05 1016 30 845 24.95 22 71.5 40 8 46.3
19:10 1016 30 845 24.95 21.8 71.2 40 7.8 46.1
19:15 1016 30 845 24.95 21.6 70.9 40 7.7 45.8
19:20 1016 30 845 24.95 21.7 71 38 7 44.6
19:25 1016 30 845 24.95 21.7 71.1 39 7.2 44.9
19:30 1016 30 845 24.95 21.7 71 40 7.6 45.6
19:35 1016 30 845 24.95 21.6 70.9 39 7.4 45.2
19:40 1016 30 845 24.95 21.7 71 39 7.1 44.8
19:45 1016 30 845 24.95 21.6 70.9 38 6.9 44.5
19:50 1016 30 845 24.95 21.6 70.8 38 7 44.6
19:55 1016 30 845 24.95 21.5 70.6 38 6.8 44.2
20:00 1016 30 845 24.95 21.4 70.4 38 6.5 43.8
20:05 1016 30 845 24.95 21.3 70.3 37 6.4 43.5
20:10 1016 30 845 24.95 21.4 70.4 36 5.8 42.4
20:15 1016 30 845 24.95 21.5 70.7 35 5.8 42.4
20:20 1016 30 845 24.95 21.5 70.7 36 6.1 43
20:25 1016 30 845 24.95 21.3 70.3 37 6.4 43.5
20:30 1016 30 845 24.95 21 69.9 38 6.4 43.6
20:35 1016 30 845 24.95 20.9 69.6 39 6.4 43.6
20:40 1016 30 845 24.95 20.8 69.5 40 6.8 44.3
20:45 1016 30 845 24.95 20.7 69.2 40 6.9 44.5
20:50 1016 30 845 24.95 20.6 69 40 6.8 44.3
20:55 1016 30 845 24.95 20.5 68.9 40 6.6 43.8
21:00 1016 30 845 24.95 20.5 68.9 40 6.7 44.1
21:05 1016 30 845 24.95 20.4 68.8 41 6.8 44.2
21:10 1016 30 845 24.95 20.2 68.4 42 7.2 44.9
21:15 1016 30 845 24.95 20 68 45 7.7 45.9
21:20 1016 30 845 24.95 19.8 67.6 45 7.6 45.7
21:25 1016 30 845 24.95 19.7 67.4 45 7.7 45.8
21:30 1016 30 845 24.95 19.6 67.3 46 7.7 45.9
21:35 1016 30 845 24.95 19.6 67.2 45 7.3 45.2
21:40 1016 30 845 24.95 19.7 67.4 43 7.1 44.7
21:45 1016 30 845 24.95 19.7 67.5 43 7 44.6
21:50 1016 30 845 24.95 19.6 67.4 44 7.1 44.8
21:55 1016 30 845 24.95 19.3 66.7 46 7.4 45.3
22:00 1016 30 845 24.95 19 66.2 46 7.2 44.9
22:05 1016 30 845 24.95 18.9 66.1 46 7.2 45
22:10 1016 30 845 24.95 18.9 65.9 46 7.1 44.8
22:15 1016 30 846 24.98 18.8 65.8 46 7.2 44.9
22:20 1016 30 846 24.98 18.7 65.7 46 7.1 44.7
22:25 1016 30 846 24.98 18.7 65.6 46 6.9 44.4
22:30 1016 30 845 24.95 18.8 65.8 46 7 44.5
22:35 1016 30 845 24.95 18.6 65.5 46 6.9 44.5
22:40 1016 30 845 24.95 18.4 65.2 47 7.2 44.9
22:45 1016 30 845 24.95 18.3 65 48 7.2 45
22:50 1016 30 845 24.95 18.3 64.9 48 7.2 45
22:55 1016 30 845 24.95 18.3 64.9 48 7.1 44.9
23:00 1016 30 846 24.98 18.2 64.8 49 7.3 45.2
23:05 1016 30 846 24.98 17.9 64.3 50 7.5 45.6
23:10 1016 30 846 24.98 17.7 63.9 51 7.5 45.5
23:15 1016 30 846 24.98 17.6 63.6 51 7.6 45.6
23:20 1016 30 846 24.98 17.4 63.4 52 7.7 45.9
23:25 1016 30 846 24.98 17.3 63.2 52 7.6 45.6
23:30 1016 30 846 24.98 17.4 63.4 52 7.7 45.8
23:35 1016 30 846 24.98 17.3 63.1 53 7.7 45.8
23:40 1017 30.03 846 24.98 17.3 63.2 52 7.6 45.6
23:45 1017 30.03 846 24.98 17.5 63.4 52 7.7 45.8
23:50 1017 30.03 846 24.98 17.4 63.3 53 7.7 45.8
23:55 1017 30.03 846 24.98 17.2 62.9 54 7.9 46.3
24:00 1017 30.03 846 24.98 16.9 62.5 54 7.8 46